KJFK/JFK METAR and TAF weather

Enter ICAO airport designator
Station Type Date Time Source
KJFK METAR 2021/09/25 02:51 UTC NOAA

KJFK 250251Z 29007KT 10SM FEW070 FEW250 19/10 A3007 RMK AO2 SLP182 T01890100 50006 $


Station Type Date Time Source
KJFK Decoded METAR 2021/09/25 02:51 UTC NOAA

KENNEDY INTERNATIONAL AIRPORT , NY, United States (KJFK) 40-38N 073-46W 9M
Sep 24, 2021 - 10:51 PM EDT / 2021.09.25 0251 UTC
Wind: from the WNW (290 degrees) at 8 MPH (7 KT):0
Visibility: 10 mile(s):0
Sky conditions: mostly clear
Temperature: 66.0 F (18.9 C)
Dew Point: 50.0 F (10.0 C)
Relative Humidity: 56%
Pressure (altimeter): 30.07 in. Hg (1018 hPa)
Pressure tendency: 0.02 inches (0.6 hPa) higher than three hours ago
ob: KJFK 250251Z 29007KT 10SM FEW070 FEW250 19/10 A3007 RMK AO2 SLP182 T01890100 50006
cycle: 3

Station Type Date Time Source
KJFK TAF 2021/09/25 03:48 UTC NOAA

TAF
AMD KJFK 250240Z 2503/2606 31007KT P6SM FEW080 FEW250
FM250800 36006KT P6SM FEW250
FM251600 22008KT P6SM SCT250
FM251800 19009KT P6SM SCT250
FM260000 22006KT P6SM SCT080 SCT250
FM260300 27006KT P6SM SCT080 SCT250

Example: see airport list